Hong Xiang 2 — BYBA — position and weather

sailwx.info

Track history (hours):
 
Tides and Currents Weather Stations Pressure Air Temp Water Temp Dewpoint Dewpoint Depression Visibility Wind Speed Wind Dir Waves Ship Positions

Hong Xiang 2

Last reported at 2014-Sep-17 22:05 UTC. Time now 2014-Sep-17 23:41 UTC.
Position N 20°14' E 110°34'.

Length 96 m; draft 5.1 m.

Type: Ship (hazmat cat A). MMSI: 413413000.

Date/timePositionNaut miles runAvg speedWind from/ knotsBaromVisibWave heightAir tempDewpointWater temp
2014-Sep-17 22:05N 20°14' E 110°34'5 7.7
2014-Sep-17 21:28N 20°14' E 110°29'7 8.1
2014-Sep-17 20:33N 20°11' E 110°22'7 7.4
2014-Sep-17 19:33N 20°10' E 110°14'7 7.2
2014-Sep-17 18:33N 20°09' E 110°07'57 8.1
2014-Sep-17 11:29N 19°52' E 109°09'6 6.8
2014-Sep-17 10:33N 19°45' E 109°10'0 0.3
2014-Sep-17 09:20N 19°46' E 109°10'0 0.0
2014-Sep-17 07:08N 19°46' E 109°10'0 0.0
2014-Sep-17 04:20N 19°46' E 109°10'0 0.0
2014-Sep-17 03:32N 19°46' E 109°10'3 2.6
2014-Sep-17 02:33N 19°44' E 109°08'1 0.6
2014-Sep-17 01:33N 19°44' E 109°08'4 2.7
2014-Sep-17 00:08N 19°40' E 109°09'0 0.1
2014-Sep-16 23:32N 19°40' E 109°09'0 0.0
2014-Sep-16 22:29N 19°40' E 109°09'0 0.0
2014-Sep-16 21:32N 19°40' E 109°09'0 0.0
2014-Sep-16 20:32N 19°40' E 109°09'0 0.0
2014-Sep-16 19:29N 19°40' E 109°09'0 0.0
2014-Sep-16 18:29N 19°40' E 109°09'0 0.0
2014-Sep-16 17:32N 19°40' E 109°09'0 0.0
2014-Sep-16 16:17N 19°40' E 109°09'0 0.1
2014-Sep-16 15:32N 19°40' E 109°09'0 0.1
2014-Sep-16 14:32N 19°40' E 109°09'0 0.0
2014-Sep-16 13:31N 19°40' E 109°09'0 0.0
2014-Sep-16 12:33N 19°40' E 109°09'0 0.0
2014-Sep-16 11:32N 19°40' E 109°09'0 0.1
2014-Sep-16 10:33N 19°40' E 109°09'0 0.1
2014-Sep-16 09:33N 19°40' E 109°09'0 0.1
2014-Sep-16 08:31N 19°40' E 109°09'0 0.0
2014-Sep-16 07:28N 19°40' E 109°09'0 0.2
2014-Sep-16 06:33N 19°40' E 109°09'0 0.1
2014-Sep-16 05:33N 19°40' E 109°09'0 0.0
2014-Sep-16 04:32N 19°40' E 109°09'0 0.2
2014-Sep-16 03:23N 19°40' E 109°09'0 0.1
2014-Sep-16 02:07N 19°40' E 109°09'0 0.1
2014-Sep-16 01:07N 19°40' E 109°09'0 0.2
2014-Sep-16 00:22N 19°40' E 109°09'0 0.1
2014-Sep-15 23:28N 19°40' E 109°09'0 0.0
2014-Sep-15 22:22N 19°40' E 109°09'0 0.0
2014-Sep-15 17:28N 19°40' E 109°09'0 0.0
2014-Sep-15 15:31N 19°40' E 109°09'0 0.0
2014-Sep-15 14:04N 19°40' E 109°09'0 0.0
2014-Sep-15 13:31N 19°40' E 109°09'0 0.0
2014-Sep-15 12:28N 19°40' E 109°09'0 0.0
2014-Sep-15 11:31N 19°40' E 109°09'0 0.1
2014-Sep-15 10:28N 19°40' E 109°09'0 0.0
2014-Sep-15 07:31N 19°40' E 109°09'0 0.1
2014-Sep-15 06:34N 19°41' E 109°09'5 5.2
2014-Sep-15 05:33N 19°46' E 109°10'0 0.0
2014-Sep-15 04:29N 19°46' E 109°10'0 0.0
2014-Sep-15 03:23N 19°46' E 109°10'0 0.0
2014-Sep-15 02:29N 19°46' E 109°10'0 0.0
2014-Sep-15 01:23N 19°46' E 109°10'0 0.0
2014-Sep-15 00:29N 19°46' E 109°10'0 0.0
2014-Sep-14 23:29N 19°46' E 109°10'0 0.0
2014-Sep-14 21:17N 19°46' E 109°10'0 0.0
2014-Sep-14 20:23N 19°46' E 109°10'0 0.0
2014-Sep-14 19:32N 19°46' E 109°10'3 2.8
2014-Sep-14 18:33N 19°43' E 109°08'0 0.1
2014-Sep-14 17:33N 19°43' E 109°08'0 0.1
2014-Sep-14 16:33N 19°43' E 109°08'0 0.0
2014-Sep-14 15:33N 19°43' E 109°08'0 0.0
2014-Sep-14 14:27N 19°43' E 109°08'0 0.0
2014-Sep-14 13:33N 19°43' E 109°08'0 0.0
2014-Sep-14 12:33N 19°43' E 109°08'0 0.0
2014-Sep-14 11:27N 19°43' E 109°08'0 0.1
2014-Sep-14 10:33N 19°43' E 109°08'0 0.0
2014-Sep-14 09:33N 19°43' E 109°08'0 0.1
2014-Sep-14 08:33N 19°43' E 109°08'0 0.1
2014-Sep-14 07:30N 19°43' E 109°08'0 0.0
2014-Sep-14 06:33N 19°43' E 109°08'0 0.0
2014-Sep-14 05:33N 19°43' E 109°08'0 0.0
2014-Sep-14 04:27N 19°43' E 109°08'0 0.0
2014-Sep-14 03:27N 19°43' E 109°08'0 0.1
2014-Sep-14 02:33N 19°43' E 109°08'0 0.0
2014-Sep-14 01:30N 19°43' E 109°08'0 0.0
2014-Sep-13 21:30N 19°43' E 109°08'0 0.0
2014-Sep-13 20:21N 19°43' E 109°08'0 0.1
2014-Sep-13 19:27N 19°43' E 109°08'0 0.1
2014-Sep-13 18:33N 19°43' E 109°08'0 0.0
2014-Sep-13 17:30N 19°43' E 109°08'0 0.0
2014-Sep-13 16:30N 19°43' E 109°08'0 0.0
2014-Sep-13 15:33N 19°43' E 109°08'0 0.0
2014-Sep-13 14:33N 19°43' E 109°08'0 0.0
2014-Sep-13 13:33N 19°43' E 109°08'0 0.0
2014-Sep-13 12:33N 19°43' E 109°08'0 0.0
2014-Sep-13 11:33N 19°43' E 109°08'0 0.1
2014-Sep-13 10:33N 19°43' E 109°08'0 0.1
2014-Sep-13 09:33N 19°43' E 109°08'0 0.0
2014-Sep-13 08:33N 19°43' E 109°08'0 0.0
2014-Sep-13 07:33N 19°43' E 109°08'0 0.0
2014-Sep-13 06:27N 19°43' E 109°08'0 0.1
2014-Sep-13 05:33N 19°43' E 109°08'0 0.1
2014-Sep-13 04:33N 19°43' E 109°08'0 0.0
2014-Sep-13 03:27N 19°43' E 109°08'0 0.0
2014-Sep-13 02:30N 19°43' E 109°08'0 0.1
2014-Sep-13 01:33N 19°43' E 109°08'0 0.1
2014-Sep-13 00:33N 19°43' E 109°08'0 0.1
2014-Sep-12 23:33N 19°43' E 109°08'0 0.0
2014-Sep-12 22:33N 19°43' E 109°08'0 0.0
2014-Sep-12 21:33N 19°43' E 109°08'0 0.0
2014-Sep-12 20:30N 19°43' E 109°08'0 0.1
2014-Sep-12 19:33N 19°43' E 109°08'0 0.0
2014-Sep-12 18:24N 19°43' E 109°08'0 0.0
2014-Sep-12 17:32N 19°43' E 109°08'0 0.0
2014-Sep-12 16:30N 19°43' E 109°08'0 0.0
2014-Sep-12 15:33N 19°43' E 109°08'0 0.0
2014-Sep-12 14:33N 19°43' E 109°08'0 0.0
2014-Sep-12 13:33N 19°43' E 109°08'0 0.0
2014-Sep-12 12:33N 19°43' E 109°08'0 0.0
2014-Sep-12 11:27N 19°43' E 109°08'0 0.1
2014-Sep-12 10:27N 19°43' E 109°08'0 0.1
2014-Sep-12 09:33N 19°43' E 109°08'0 0.0
2014-Sep-12 08:32N 19°43' E 109°08'0 0.0
2014-Sep-12 07:32N 19°43' E 109°08'0 0.0
2014-Sep-12 06:32N 19°43' E 109°08'0 0.0
2014-Sep-12 05:29N 19°43' E 109°08'0 0.1
2014-Sep-12 04:26N 19°43' E 109°08'0 0.1
2014-Sep-12 03:32N 19°43' E 109°08'0 0.1
2014-Sep-12 02:32N 19°43' E 109°08'0 0.1
2014-Sep-12 01:32N 19°43' E 109°08'0 0.0
2014-Sep-12 00:29N 19°43' E 109°08'0 0.0
2014-Sep-11 23:32N 19°43' E 109°08'0 0.0
2014-Sep-11 22:32N 19°43' E 109°08'0 0.0
2014-Sep-11 21:26N 19°43' E 109°08'0 0.0
2014-Sep-11 20:32N 19°43' E 109°08'0 0.1
2014-Sep-11 19:29N 19°43' E 109°08'0 0.0
2014-Sep-11 18:32N 19°43' E 109°08'0 0.0
2014-Sep-11 17:29N 19°43' E 109°08'0 0.0
2014-Sep-11 16:32N 19°43' E 109°08'0 0.0
2014-Sep-11 15:32N 19°43' E 109°08'0 0.0
2014-Sep-11 14:32N 19°43' E 109°08'0 0.0
2014-Sep-11 13:32N 19°43' E 109°08'0 0.0
2014-Sep-11 12:32N 19°43' E 109°08'0 0.0
2014-Sep-11 11:23N 19°43' E 109°08'0 0.1
2014-Sep-11 10:23N 19°43' E 109°08'0 0.1
2014-Sep-11 09:29N 19°43' E 109°08'0 0.0
2014-Sep-11 08:32N 19°43' E 109°08'0 0.0
2014-Sep-11 07:32N 19°43' E 109°08'0 0.0
2014-Sep-11 06:32N 19°43' E 109°08'0 0.0
2014-Sep-11 05:26N 19°43' E 109°08'0 0.0
2014-Sep-11 04:32N 19°43' E 109°08'0 0.0
2014-Sep-11 03:29N 19°43' E 109°08'0 0.0
2014-Sep-11 02:32N 19°43' E 109°08'0 0.1
2014-Sep-11 01:29N 19°43' E 109°08'0 0.0
2014-Sep-11 00:32N 19°43' E 109°08'0 0.0
2014-Sep-10 23:29N 19°43' E 109°08'0 0.0
2014-Sep-10 22:32N 19°43' E 109°08'0 0.0
2014-Sep-10 21:32N 19°43' E 109°08'0 0.0
2014-Sep-10 20:32N 19°43' E 109°08'0 0.0
2014-Sep-10 19:23N 19°43' E 109°08'0 0.1
2014-Sep-10 18:26N 19°43' E 109°08'0 0.0
2014-Sep-10 17:20N 19°43' E 109°08'0 0.0
2014-Sep-10 16:23N 19°43' E 109°08'0 0.0
2014-Sep-10 15:32N 19°43' E 109°08'0 0.0
2014-Sep-10 14:32N 19°43' E 109°08'0 0.0
2014-Sep-10 13:26N 19°43' E 109°08'0 0.0
2014-Sep-10 12:29N 19°43' E 109°08'0 0.1
2014-Sep-10 11:32N 19°43' E 109°08'0 0.0
2014-Sep-10 10:32N 19°43' E 109°08'0 0.0
2014-Sep-10 09:32N 19°43' E 109°08'0 0.0
2014-Sep-10 08:29N 19°43' E 109°08'0 0.0
2014-Sep-10 07:32N 19°43' E 109°08'0 0.0
2014-Sep-10 06:32N 19°43' E 109°08'0 0.0
2014-Sep-10 05:26N 19°43' E 109°08'0 0.0
2014-Sep-10 04:32N 19°43' E 109°08'0 0.0
2014-Sep-10 03:32N 19°43' E 109°08'0 0.0
2014-Sep-10 02:29N 19°43' E 109°08'0 0.0
2014-Sep-10 01:20N 19°43' E 109°08'0 0.0
2014-Sep-10 00:32N 19°43' E 109°08'0 0.1
2014-Sep-09 23:32N 19°43' E 109°08'0 0.0
2014-Sep-09 22:29N 19°43' E 109°08'0 0.0
2014-Sep-09 21:32N 19°43' E 109°08'0 0.0
2014-Sep-09 20:32N 19°43' E 109°08'1 1.3
2014-Sep-09 19:33N 19°44' E 109°07'58 9.6
2014-Sep-09 13:33N 20°09' E 110°03'9 8.7
2014-Sep-09 12:33N 20°11' E 110°12'8 8.1
2014-Sep-09 11:34N 20°12' E 110°20'10 8.7
2014-Sep-09 10:23N 20°15' E 110°31'10 9.1
2014-Sep-09 09:16N 20°15' E 110°42'17110.2
2014-Sep-08 16:28N 21°46' E 113°16'27 6.8
2014-Sep-08 12:32N 21°58' E 113°42'0 0.0
2014-Sep-08 11:33N 21°58' E 113°42'0 0.0
2014-Sep-08 10:33N 21°58' E 113°42'0 0.0
2014-Sep-08 09:27N 21°58' E 113°42'1 0.7
2014-Sep-08 08:33N 21°59' E 113°42'1010.3
2014-Sep-08 07:33N 22°09' E 113°45'1312.4
2014-Sep-08 06:33N 22°21' E 113°47'2512.4
2014-Sep-08 04:33N 22°44' E 113°39'9 9.3
2014-Sep-08 03:33N 22°52' E 113°34'  
Track history (hours):
 
Tides and Currents Weather Stations Pressure Air Temp Water Temp Dewpoint Dewpoint Depression Visibility Wind Speed Wind Dir Waves Ship Positions

Hong Xiang 2

Last reported at 2014-Sep-17 22:05 UTC. Time now 2014-Sep-17 23:41 UTC.
Position N 20°14' E 110°34'.

Length 96 m; draft 5.1 m.

Type: Ship (hazmat cat A). MMSI: 413413000.

Date/timePositionNaut miles runAvg speedWind from/ knotsBaromVisibWave heightAir tempDewpointWater temp
2014-Sep-17 22:05N 20°14' E 110°34'5 7.7
2014-Sep-17 21:28N 20°14' E 110°29'7 8.1
2014-Sep-17 20:33N 20°11' E 110°22'7 7.4
2014-Sep-17 19:33N 20°10' E 110°14'7 7.2
2014-Sep-17 18:33N 20°09' E 110°07'57 8.1
2014-Sep-17 11:29N 19°52' E 109°09'6 6.8
2014-Sep-17 10:33N 19°45' E 109°10'0 0.3
2014-Sep-17 09:20N 19°46' E 109°10'0 0.0
2014-Sep-17 07:08N 19°46' E 109°10'0 0.0
2014-Sep-17 04:20N 19°46' E 109°10'0 0.0
2014-Sep-17 03:32N 19°46' E 109°10'3 2.6
2014-Sep-17 02:33N 19°44' E 109°08'1 0.6
2014-Sep-17 01:33N 19°44' E 109°08'4 2.7
2014-Sep-17 00:08N 19°40' E 109°09'0 0.1
2014-Sep-16 23:32N 19°40' E 109°09'0 0.0
2014-Sep-16 22:29N 19°40' E 109°09'0 0.0
2014-Sep-16 21:32N 19°40' E 109°09'0 0.0
2014-Sep-16 20:32N 19°40' E 109°09'0 0.0
2014-Sep-16 19:29N 19°40' E 109°09'0 0.0
2014-Sep-16 18:29N 19°40' E 109°09'0 0.0
2014-Sep-16 17:32N 19°40' E 109°09'0 0.0
2014-Sep-16 16:17N 19°40' E 109°09'0 0.1
2014-Sep-16 15:32N 19°40' E 109°09'0 0.1
2014-Sep-16 14:32N 19°40' E 109°09'0 0.0
2014-Sep-16 13:31N 19°40' E 109°09'0 0.0
2014-Sep-16 12:33N 19°40' E 109°09'0 0.0
2014-Sep-16 11:32N 19°40' E 109°09'0 0.1
2014-Sep-16 10:33N 19°40' E 109°09'0 0.1
2014-Sep-16 09:33N 19°40' E 109°09'0 0.1
2014-Sep-16 08:31N 19°40' E 109°09'0 0.0
2014-Sep-16 07:28N 19°40' E 109°09'0 0.2
2014-Sep-16 06:33N 19°40' E 109°09'0 0.1
2014-Sep-16 05:33N 19°40' E 109°09'0 0.0
2014-Sep-16 04:32N 19°40' E 109°09'0 0.2
2014-Sep-16 03:23N 19°40' E 109°09'0 0.1
2014-Sep-16 02:07N 19°40' E 109°09'0 0.1
2014-Sep-16 01:07N 19°40' E 109°09'0 0.2
2014-Sep-16 00:22N 19°40' E 109°09'0 0.1
2014-Sep-15 23:28N 19°40' E 109°09'0 0.0
2014-Sep-15 22:22N 19°40' E 109°09'0 0.0
2014-Sep-15 17:28N 19°40' E 109°09'0 0.0
2014-Sep-15 15:31N 19°40' E 109°09'0 0.0
2014-Sep-15 14:04N 19°40' E 109°09'0 0.0
2014-Sep-15 13:31N 19°40' E 109°09'0 0.0
2014-Sep-15 12:28N 19°40' E 109°09'0 0.0
2014-Sep-15 11:31N 19°40' E 109°09'0 0.1
2014-Sep-15 10:28N 19°40' E 109°09'0 0.0
2014-Sep-15 07:31N 19°40' E 109°09'0 0.1
2014-Sep-15 06:34N 19°41' E 109°09'5 5.2
2014-Sep-15 05:33N 19°46' E 109°10'0 0.0
2014-Sep-15 04:29N 19°46' E 109°10'0 0.0
2014-Sep-15 03:23N 19°46' E 109°10'0 0.0
2014-Sep-15 02:29N 19°46' E 109°10'0 0.0
2014-Sep-15 01:23N 19°46' E 109°10'0 0.0
2014-Sep-15 00:29N 19°46' E 109°10'0 0.0
2014-Sep-14 23:29N 19°46' E 109°10'0 0.0
2014-Sep-14 21:17N 19°46' E 109°10'0 0.0
2014-Sep-14 20:23N 19°46' E 109°10'0 0.0
2014-Sep-14 19:32N 19°46' E 109°10'3 2.8
2014-Sep-14 18:33N 19°43' E 109°08'0 0.1
2014-Sep-14 17:33N 19°43' E 109°08'0 0.1
2014-Sep-14 16:33N 19°43' E 109°08'0 0.0
2014-Sep-14 15:33N 19°43' E 109°08'0 0.0
2014-Sep-14 14:27N 19°43' E 109°08'0 0.0
2014-Sep-14 13:33N 19°43' E 109°08'0 0.0
2014-Sep-14 12:33N 19°43' E 109°08'0 0.0
2014-Sep-14 11:27N 19°43' E 109°08'0 0.1
2014-Sep-14 10:33N 19°43' E 109°08'0 0.0
2014-Sep-14 09:33N 19°43' E 109°08'0 0.1
2014-Sep-14 08:33N 19°43' E 109°08'0 0.1
2014-Sep-14 07:30N 19°43' E 109°08'0 0.0
2014-Sep-14 06:33N 19°43' E 109°08'0 0.0
2014-Sep-14 05:33N 19°43' E 109°08'0 0.0
2014-Sep-14 04:27N 19°43' E 109°08'0 0.0
2014-Sep-14 03:27N 19°43' E 109°08'0 0.1
2014-Sep-14 02:33N 19°43' E 109°08'0 0.0
2014-Sep-14 01:30N 19°43' E 109°08'0 0.0
2014-Sep-13 21:30N 19°43' E 109°08'0 0.0
2014-Sep-13 20:21N 19°43' E 109°08'0 0.1
2014-Sep-13 19:27N 19°43' E 109°08'0 0.1
2014-Sep-13 18:33N 19°43' E 109°08'0 0.0
2014-Sep-13 17:30N 19°43' E 109°08'0 0.0
2014-Sep-13 16:30N 19°43' E 109°08'0 0.0
2014-Sep-13 15:33N 19°43' E 109°08'0 0.0
2014-Sep-13 14:33N 19°43' E 109°08'0 0.0
2014-Sep-13 13:33N 19°43' E 109°08'0 0.0
2014-Sep-13 12:33N 19°43' E 109°08'0 0.0
2014-Sep-13 11:33N 19°43' E 109°08'0 0.1
2014-Sep-13 10:33N 19°43' E 109°08'0 0.1
2014-Sep-13 09:33N 19°43' E 109°08'0 0.0
2014-Sep-13 08:33N 19°43' E 109°08'0 0.0
2014-Sep-13 07:33N 19°43' E 109°08'0 0.0
2014-Sep-13 06:27N 19°43' E 109°08'0 0.1
2014-Sep-13 05:33N 19°43' E 109°08'0 0.1
2014-Sep-13 04:33N 19°43' E 109°08'0 0.0
2014-Sep-13 03:27N 19°43' E 109°08'0 0.0
2014-Sep-13 02:30N 19°43' E 109°08'0 0.1
2014-Sep-13 01:33N 19°43' E 109°08'0 0.1
2014-Sep-13 00:33N 19°43' E 109°08'0 0.1
2014-Sep-12 23:33N 19°43' E 109°08'0 0.0
2014-Sep-12 22:33N 19°43' E 109°08'0 0.0
2014-Sep-12 21:33N 19°43' E 109°08'0 0.0
2014-Sep-12 20:30N 19°43' E 109°08'0 0.1
2014-Sep-12 19:33N 19°43' E 109°08'0 0.0
2014-Sep-12 18:24N 19°43' E 109°08'0 0.0
2014-Sep-12 17:32N 19°43' E 109°08'0 0.0
2014-Sep-12 16:30N 19°43' E 109°08'0 0.0
2014-Sep-12 15:33N 19°43' E 109°08'0 0.0
2014-Sep-12 14:33N 19°43' E 109°08'0 0.0
2014-Sep-12 13:33N 19°43' E 109°08'0 0.0
2014-Sep-12 12:33N 19°43' E 109°08'0 0.0
2014-Sep-12 11:27N 19°43' E 109°08'0 0.1
2014-Sep-12 10:27N 19°43' E 109°08'0 0.1
2014-Sep-12 09:33N 19°43' E 109°08'0 0.0
2014-Sep-12 08:32N 19°43' E 109°08'0 0.0
2014-Sep-12 07:32N 19°43' E 109°08'0 0.0
2014-Sep-12 06:32N 19°43' E 109°08'0 0.0
2014-Sep-12 05:29N 19°43' E 109°08'0 0.1
2014-Sep-12 04:26N 19°43' E 109°08'0 0.1
2014-Sep-12 03:32N 19°43' E 109°08'0 0.1
2014-Sep-12 02:32N 19°43' E 109°08'0 0.1
2014-Sep-12 01:32N 19°43' E 109°08'0 0.0
2014-Sep-12 00:29N 19°43' E 109°08'0 0.0
2014-Sep-11 23:32N 19°43' E 109°08'0 0.0
2014-Sep-11 22:32N 19°43' E 109°08'0 0.0
2014-Sep-11 21:26N 19°43' E 109°08'0 0.0
2014-Sep-11 20:32N 19°43' E 109°08'0 0.1
2014-Sep-11 19:29N 19°43' E 109°08'0 0.0
2014-Sep-11 18:32N 19°43' E 109°08'0 0.0
2014-Sep-11 17:29N 19°43' E 109°08'0 0.0
2014-Sep-11 16:32N 19°43' E 109°08'0 0.0
2014-Sep-11 15:32N 19°43' E 109°08'0 0.0
2014-Sep-11 14:32N 19°43' E 109°08'0 0.0
2014-Sep-11 13:32N 19°43' E 109°08'0 0.0
2014-Sep-11 12:32N 19°43' E 109°08'0 0.0
2014-Sep-11 11:23N 19°43' E 109°08'0 0.1
2014-Sep-11 10:23N 19°43' E 109°08'0 0.1
2014-Sep-11 09:29N 19°43' E 109°08'0 0.0
2014-Sep-11 08:32N 19°43' E 109°08'0 0.0
2014-Sep-11 07:32N 19°43' E 109°08'0 0.0
2014-Sep-11 06:32N 19°43' E 109°08'0 0.0
2014-Sep-11 05:26N 19°43' E 109°08'0 0.0
2014-Sep-11 04:32N 19°43' E 109°08'0 0.0
2014-Sep-11 03:29N 19°43' E 109°08'0 0.0
2014-Sep-11 02:32N 19°43' E 109°08'0 0.1
2014-Sep-11 01:29N 19°43' E 109°08'0 0.0
2014-Sep-11 00:32N 19°43' E 109°08'0 0.0
2014-Sep-10 23:29N 19°43' E 109°08'0 0.0
2014-Sep-10 22:32N 19°43' E 109°08'0 0.0
2014-Sep-10 21:32N 19°43' E 109°08'0 0.0
2014-Sep-10 20:32N 19°43' E 109°08'0 0.0
2014-Sep-10 19:23N 19°43' E 109°08'0 0.1
2014-Sep-10 18:26N 19°43' E 109°08'0 0.0
2014-Sep-10 17:20N 19°43' E 109°08'0 0.0
2014-Sep-10 16:23N 19°43' E 109°08'0 0.0
2014-Sep-10 15:32N 19°43' E 109°08'0 0.0
2014-Sep-10 14:32N 19°43' E 109°08'0 0.0
2014-Sep-10 13:26N 19°43' E 109°08'0 0.0
2014-Sep-10 12:29N 19°43' E 109°08'0 0.1
2014-Sep-10 11:32N 19°43' E 109°08'0 0.0
2014-Sep-10 10:32N 19°43' E 109°08'0 0.0
2014-Sep-10 09:32N 19°43' E 109°08'0 0.0
2014-Sep-10 08:29N 19°43' E 109°08'0 0.0
2014-Sep-10 07:32N 19°43' E 109°08'0 0.0
2014-Sep-10 06:32N 19°43' E 109°08'0 0.0
2014-Sep-10 05:26N 19°43' E 109°08'0 0.0
2014-Sep-10 04:32N 19°43' E 109°08'0 0.0
2014-Sep-10 03:32N 19°43' E 109°08'0 0.0
2014-Sep-10 02:29N 19°43' E 109°08'0 0.0
2014-Sep-10 01:20N 19°43' E 109°08'0 0.0
2014-Sep-10 00:32N 19°43' E 109°08'0 0.1
2014-Sep-09 23:32N 19°43' E 109°08'0 0.0
2014-Sep-09 22:29N 19°43' E 109°08'0 0.0
2014-Sep-09 21:32N 19°43' E 109°08'0 0.0
2014-Sep-09 20:32N 19°43' E 109°08'1 1.3
2014-Sep-09 19:33N 19°44' E 109°07'58 9.6
2014-Sep-09 13:33N 20°09' E 110°03'9 8.7
2014-Sep-09 12:33N 20°11' E 110°12'8 8.1
2014-Sep-09 11:34N 20°12' E 110°20'10 8.7
2014-Sep-09 10:23N 20°15' E 110°31'10 9.1
2014-Sep-09 09:16N 20°15' E 110°42'17110.2
2014-Sep-08 16:28N 21°46' E 113°16'27 6.8
2014-Sep-08 12:32N 21°58' E 113°42'0 0.0
2014-Sep-08 11:33N 21°58' E 113°42'0 0.0
2014-Sep-08 10:33N 21°58' E 113°42'0 0.0
2014-Sep-08 09:27N 21°58' E 113°42'1 0.7
2014-Sep-08 08:33N 21°59' E 113°42'1010.3
2014-Sep-08 07:33N 22°09' E 113°45'1312.4
2014-Sep-08 06:33N 22°21' E 113°47'2512.4
2014-Sep-08 04:33N 22°44' E 113°39'9 9.3
2014-Sep-08 03:33N 22°52' E 113°34'  

Dump ship's entire track history